Terminal Aerodrome Forecast
Issued by NWS Lake Charles, LA

Home | Current Version | Previous Version | Text Only | Print | Product List | Glossary On
Versions: 1 2 3 4 5 6 7 8 9 10 11 12 13
074
FTUS44 KLCH 132322
TAFAEX
TAF
KAEX 132322Z 1400/1424 09005KT P6SM SCT050
     FM141200 13006KT P6SM SCT050
     FM141800 15010KT P6SM BKN050=

USA.gov is the U.S. government's official web portal to all federal, state and local government web resources and services.